createdAt,value
2018-11-05T00:00:43.968Z,7.10
2018-11-05T00:03:12.655Z,7.20
2018-11-05T00:05:41.395Z,7.20
2018-11-05T00:08:10.732Z,7.20
2018-11-05T00:10:39.589Z,7.20
2018-11-05T00:13:11.908Z,7.10
2018-11-05T00:15:40.800Z,7.10
2018-11-05T00:18:09.536Z,7.10
2018-11-05T00:20:38.219Z,7.10
2018-11-05T00:23:06.945Z,7.10
2018-11-05T00:25:50.418Z,7.00
2018-11-05T00:28:19.148Z,7.00
2018-11-05T00:30:48.228Z,6.90
2018-11-05T00:33:17.435Z,6.90
2018-11-05T00:35:47.566Z,6.90
2018-11-05T00:38:17.719Z,6.90
2018-11-05T00:40:46.453Z,6.80
2018-11-05T00:43:15.199Z,6.80
2018-11-05T00:45:44.041Z,6.80
2018-11-05T00:48:13.948Z,6.70
2018-11-05T00:50:42.620Z,6.60
2018-11-05T00:53:11.270Z,6.60
2018-11-05T00:55:39.919Z,6.70
2018-11-05T00:58:08.817Z,6.70
2018-11-05T01:00:41.125Z,6.60
2018-11-05T01:03:09.907Z,6.60
2018-11-05T01:05:38.555Z,6.60
2018-11-05T01:08:07.471Z,6.60
2018-11-05T01:10:36.802Z,6.70
2018-11-05T01:13:05.799Z,6.70
2018-11-05T01:15:34.477Z,6.60
2018-11-05T01:18:03.212Z,6.70
2018-11-05T01:20:34.694Z,6.70
2018-11-05T01:23:04.244Z,6.80
2018-11-05T01:25:33.023Z,6.70
2018-11-05T01:28:01.672Z,6.70
2018-11-05T01:30:30.396Z,6.50
2018-11-05T01:32:59.044Z,6.50
2018-11-05T01:35:29.601Z,6.60
2018-11-05T01:37:58.623Z,6.60
2018-11-05T01:40:27.339Z,6.50
2018-11-05T01:42:57.324Z,6.70
2018-11-05T01:45:26.023Z,6.70
2018-11-05T01:47:56.855Z,6.70
2018-11-05T01:50:25.675Z,6.80
2018-11-05T01:52:54.428Z,6.80
2018-11-05T01:55:23.152Z,6.70
2018-11-05T01:57:51.886Z,6.80
2018-11-05T02:00:20.624Z,6.80
2018-11-05T02:02:49.348Z,6.70
2018-11-05T02:05:18.067Z,6.80
2018-11-05T02:07:46.958Z,6.70
2018-11-05T02:10:16.896Z,6.80
2018-11-05T02:12:45.768Z,6.70
2018-11-05T02:15:14.507Z,6.70
2018-11-05T02:17:44.435Z,6.60
2018-11-05T02:20:14.141Z,6.60
2018-11-05T02:22:42.851Z,6.70
2018-11-05T02:25:12.463Z,6.70
2018-11-05T02:27:42.022Z,6.70
2018-11-05T02:30:13.867Z,6.70
2018-11-05T02:32:43.041Z,6.80
2018-11-05T02:35:12.896Z,6.80
2018-11-05T02:37:43.575Z,6.80
2018-11-05T02:40:14.596Z,6.80
2018-11-05T02:42:43.917Z,6.90
2018-11-05T02:45:13.833Z,6.80
2018-11-05T02:47:42.879Z,6.80
2018-11-05T02:50:12.616Z,6.70
2018-11-05T02:52:42.653Z,6.60
2018-11-05T02:55:11.370Z,6.60
2018-11-05T02:57:41.216Z,6.50
2018-11-05T03:00:14.120Z,6.50
2018-11-05T03:02:43.034Z,6.60
2018-11-05T03:05:14.079Z,6.70
2018-11-05T03:07:46.567Z,6.70
2018-11-05T03:10:15.465Z,6.70
2018-11-05T03:12:45.105Z,6.70
2018-11-05T03:15:15.127Z,6.80
2018-11-05T03:17:45.685Z,6.80
2018-11-05T03:20:15.195Z,6.80
2018-11-05T03:22:44.409Z,6.90
2018-11-05T03:25:13.142Z,6.80
2018-11-05T03:27:42.121Z,6.70
2018-11-05T03:30:16.746Z,6.60
2018-11-05T03:32:45.667Z,6.60
2018-11-05T03:35:15.337Z,6.60
2018-11-05T03:37:45.228Z,6.70
2018-11-05T03:40:14.196Z,6.70
2018-11-05T03:42:43.792Z,6.90
2018-11-05T03:45:13.776Z,6.90
2018-11-05T03:47:42.897Z,6.80
2018-11-05T03:50:15.974Z,6.90
2018-11-05T03:52:45.496Z,6.90
2018-11-05T03:55:15.110Z,7.00
2018-11-05T03:57:44.057Z,7.00
2018-11-05T04:00:14.199Z,7.00
2018-11-05T04:02:43.466Z,7.00
2018-11-05T04:05:12.389Z,7.00
2018-11-05T04:07:41.196Z,7.00
2018-11-05T04:10:11.100Z,7.00
2018-11-05T04:12:40.901Z,6.80
2018-11-05T04:15:10.064Z,6.80
2018-11-05T04:17:38.733Z,6.80
2018-11-05T04:20:09.175Z,6.80
2018-11-05T04:22:37.885Z,6.80
2018-11-05T04:25:06.612Z,6.80
2018-11-05T04:27:35.361Z,6.80
2018-11-05T04:30:05.228Z,6.70
2018-11-05T04:32:34.020Z,6.60
2018-11-05T04:35:02.767Z,6.60
2018-11-05T04:37:31.471Z,6.60
2018-11-05T04:40:00.169Z,6.60
2018-11-05T04:42:28.848Z,6.60
2018-11-05T04:44:57.898Z,6.70
2018-11-05T04:47:26.581Z,6.70
2018-11-05T04:49:55.275Z,6.70
2018-11-05T04:52:25.015Z,6.70
2018-11-05T04:54:53.766Z,6.70
2018-11-05T04:57:22.576Z,6.70
2018-11-05T04:59:51.807Z,6.70
2018-11-05T05:02:20.496Z,6.80
2018-11-05T05:04:49.197Z,6.80
2018-11-05T05:07:17.899Z,6.70
2018-11-05T05:09:46.601Z,6.60
2018-11-05T05:12:15.316Z,6.60
2018-11-05T05:14:44.046Z,6.60
2018-11-05T05:17:12.700Z,6.70
2018-11-05T05:19:41.404Z,6.80
2018-11-05T05:22:10.088Z,6.80
2018-11-05T05:24:38.788Z,6.70
2018-11-05T05:27:07.503Z,6.70
2018-11-05T05:29:36.182Z,6.60
2018-11-05T05:32:05.285Z,6.60
2018-11-05T05:34:33.983Z,6.60
2018-11-05T05:37:02.656Z,6.60
2018-11-05T05:39:31.378Z,6.70
2018-11-05T05:42:00.364Z,6.80
2018-11-05T05:44:29.089Z,6.80
2018-11-05T05:46:57.901Z,6.60
2018-11-05T05:49:26.595Z,6.50
2018-11-05T05:54:30.444Z,6.70
2018-11-05T05:56:59.129Z,6.80
2018-11-05T05:59:27.832Z,6.70
2018-11-05T06:01:56.641Z,6.80
2018-11-05T06:04:25.637Z,6.80
2018-11-05T06:06:54.332Z,6.90
2018-11-05T06:09:23.047Z,6.90
2018-11-05T06:11:51.734Z,7.00
2018-11-05T06:14:20.436Z,7.00
2018-11-05T06:16:49.116Z,7.10
2018-11-05T06:19:18.093Z,7.10
2018-11-05T06:21:46.839Z,7.00
2018-11-05T06:24:16.111Z,7.00
2018-11-05T06:26:47.020Z,7.00
2018-11-05T06:29:15.717Z,6.90
2018-11-05T06:31:44.640Z,7.00
2018-11-05T06:34:13.399Z,6.90
2018-11-05T06:36:42.112Z,7.00
2018-11-05T06:39:12.527Z,7.00
2018-11-05T06:41:41.778Z,7.10
2018-11-05T06:44:10.531Z,7.20
2018-11-05T06:46:39.172Z,7.30
2018-11-05T06:49:07.979Z,7.20
2018-11-05T06:51:36.668Z,7.20
2018-11-05T06:54:05.919Z,7.20
2018-11-05T06:56:34.928Z,7.20
2018-11-05T06:59:03.668Z,7.30
2018-11-05T07:01:32.793Z,7.40
2018-11-05T07:04:01.529Z,7.40
2018-11-05T07:06:30.280Z,7.40
2018-11-05T07:08:59.104Z,7.50
2018-11-05T07:11:28.012Z,7.40
2018-11-05T07:13:56.788Z,7.50
2018-11-05T07:16:25.784Z,7.60
2018-11-05T07:18:54.673Z,7.70
2018-11-05T07:21:24.609Z,7.70
2018-11-05T07:23:53.340Z,7.70
2018-11-05T07:26:22.042Z,7.80
2018-11-05T07:28:50.742Z,7.80
2018-11-05T07:31:19.435Z,7.90
2018-11-05T07:33:49.156Z,8.10
2018-11-05T07:36:17.687Z,8.20
2018-11-05T07:38:46.544Z,8.20
2018-11-05T07:41:15.263Z,8.10
2018-11-05T07:43:43.955Z,8.10
2018-11-05T07:46:12.663Z,8.20
2018-11-05T07:48:41.371Z,8.30
2018-11-05T07:51:10.371Z,8.20
2018-11-05T07:53:39.056Z,8.20
2018-11-05T07:56:07.798Z,8.30
2018-11-05T07:58:36.572Z,8.40
2018-11-05T08:01:05.940Z,8.30
2018-11-05T08:03:34.608Z,8.20
2018-11-05T08:06:03.275Z,8.30
2018-11-05T08:08:32.026Z,8.40
2018-11-05T08:11:00.655Z,8.50
2018-11-05T08:13:29.763Z,8.60
2018-11-05T08:15:58.473Z,8.70
2018-11-05T08:18:27.303Z,8.90
2018-11-05T08:20:56.453Z,9.10
2018-11-05T08:23:25.144Z,9.20
2018-11-05T08:25:54.020Z,9.40
2018-11-05T08:28:22.740Z,9.30
2018-11-05T08:30:51.444Z,9.30
2018-11-05T08:33:20.146Z,9.40
2018-11-05T08:35:48.916Z,9.60
2018-11-05T08:38:17.616Z,9.60
2018-11-05T08:40:46.299Z,9.60
2018-11-05T08:43:15.016Z,9.70
2018-11-05T08:45:44.623Z,9.70
2018-11-05T08:48:13.381Z,9.70
2018-11-05T08:50:42.212Z,9.60
2018-11-05T08:53:10.843Z,9.50
2018-11-05T08:55:39.847Z,9.40
2018-11-05T08:58:08.561Z,9.30
2018-11-05T09:00:42.827Z,9.50
2018-11-05T09:03:11.668Z,9.60
2018-11-05T09:05:40.457Z,9.40
2018-11-05T09:08:09.582Z,9.40
2018-11-05T09:10:38.673Z,9.70
2018-11-05T09:13:07.072Z,9.90
2018-11-05T09:15:35.806Z,10.00
2018-11-05T09:18:04.501Z,10.10
2018-11-05T09:20:33.218Z,10.10
2018-11-05T09:23:02.004Z,10.10
2018-11-05T09:25:30.708Z,10.10
2018-11-05T09:27:59.515Z,10.30
2018-11-05T09:30:28.125Z,10.80
2018-11-05T09:32:56.807Z,11.00
2018-11-05T09:35:25.676Z,11.00
2018-11-05T09:37:54.632Z,11.00
2018-11-05T09:40:24.293Z,11.30
2018-11-05T09:42:53.487Z,11.40
2018-11-05T09:45:25.379Z,11.40
2018-11-05T09:47:54.073Z,11.10
2018-11-05T09:50:23.403Z,10.90
2018-11-05T09:52:52.010Z,11.10
2018-11-05T09:55:20.712Z,11.50
2018-11-05T09:57:49.439Z,11.80
2018-11-05T10:00:20.334Z,12.10
2018-11-05T10:03:22.258Z,12.20
2018-11-05T10:05:50.648Z,12.90
2018-11-05T10:08:19.400Z,13.70
2018-11-05T10:10:48.154Z,13.80
2018-11-05T10:13:16.947Z,13.80
2018-11-05T10:15:45.643Z,13.90
2018-11-05T10:18:14.560Z,13.40
2018-11-05T10:20:43.247Z,13.80
2018-11-05T10:23:11.966Z,13.90
2018-11-05T10:25:40.657Z,15.00
2018-11-05T10:28:09.646Z,15.50
2018-11-05T10:30:38.339Z,15.90
2018-11-05T10:33:07.035Z,16.90
2018-11-05T10:35:41.049Z,17.60
2018-11-05T10:38:09.763Z,17.70
2018-11-05T10:40:38.551Z,18.50
2018-11-05T10:43:07.289Z,19.60
2018-11-05T10:45:37.166Z,19.80
2018-11-05T10:48:05.951Z,19.50
2018-11-05T10:50:34.673Z,19.20
2018-11-05T10:53:03.788Z,19.30
2018-11-05T10:55:32.483Z,19.30
2018-11-05T10:58:01.268Z,20.50
2018-11-05T11:00:35.287Z,21.20
2018-11-05T11:03:10.060Z,20.50
2018-11-05T11:05:38.784Z,20.70
2018-11-05T11:08:07.621Z,21.10
2018-11-05T11:10:36.315Z,21.10
2018-11-05T11:13:05.372Z,21.10
2018-11-05T11:15:34.064Z,20.20
2018-11-05T11:18:02.773Z,20.10
2018-11-05T11:20:31.464Z,19.80
2018-11-05T11:23:00.164Z,20.20
2018-11-05T11:25:28.922Z,20.10
2018-11-05T11:27:57.868Z,20.40
2018-11-05T11:30:26.393Z,21.20
2018-11-05T11:32:56.206Z,20.80
2018-11-05T11:35:24.921Z,21.00
2018-11-05T11:37:53.649Z,19.80
2018-11-05T11:40:23.323Z,19.90
2018-11-05T11:42:52.152Z,20.20
2018-11-05T11:45:21.851Z,20.30
2018-11-05T11:47:50.570Z,20.00
2018-11-05T11:50:19.821Z,19.70
2018-11-05T11:52:48.945Z,19.50
2018-11-05T11:55:19.106Z,19.10
2018-11-05T11:57:47.856Z,19.40
2018-11-05T12:00:19.588Z,20.10
2018-11-05T12:02:49.013Z,19.50
2018-11-05T12:05:17.851Z,20.60
2018-11-05T12:07:46.444Z,22.00
2018-11-05T12:10:16.827Z,22.30
2018-11-05T12:12:45.739Z,22.00
2018-11-05T12:15:15.560Z,21.80
2018-11-05T12:17:45.296Z,20.80
2018-11-05T12:20:17.127Z,20.70
2018-11-05T12:22:47.423Z,20.00
2018-11-05T12:25:16.433Z,20.40
2018-11-05T12:27:45.147Z,20.10
2018-11-05T12:30:18.120Z,19.10
2018-11-05T12:32:47.728Z,18.20
2018-11-05T12:35:16.439Z,17.80
2018-11-05T12:37:46.359Z,17.80
2018-11-05T12:40:17.163Z,18.90
2018-11-05T12:42:46.935Z,19.40
2018-11-05T12:45:15.640Z,20.60
2018-11-05T12:47:44.387Z,22.20
2018-11-05T12:50:15.685Z,22.90
2018-11-05T12:52:45.421Z,23.50
2018-11-05T12:55:15.096Z,22.70
2018-11-05T12:57:43.942Z,22.90
2018-11-05T13:00:15.703Z,23.00
2018-11-05T13:02:44.532Z,23.70
2018-11-05T13:05:13.932Z,23.40
2018-11-05T13:07:42.665Z,23.50
2018-11-05T13:10:12.468Z,22.80
2018-11-05T13:12:41.264Z,21.80
2018-11-05T13:15:10.719Z,20.80
2018-11-05T13:17:40.105Z,19.40
2018-11-05T13:20:11.569Z,18.50
2018-11-05T13:22:40.849Z,18.60
2018-11-05T13:25:09.564Z,19.00
2018-11-05T13:27:38.500Z,19.20
2018-11-05T13:30:08.196Z,19.40
2018-11-05T13:32:37.207Z,19.30
2018-11-05T13:35:06.992Z,19.10
2018-11-05T13:37:36.087Z,19.00
2018-11-05T13:40:04.924Z,18.60
2018-11-05T13:42:33.728Z,18.60
2018-11-05T13:45:02.465Z,18.30
2018-11-05T13:47:31.952Z,18.30
2018-11-05T13:50:00.210Z,18.40
2018-11-05T13:52:28.816Z,18.70
2018-11-05T13:54:58.555Z,19.10
2018-11-05T13:57:26.918Z,19.10
2018-11-05T13:59:55.636Z,19.00
2018-11-05T14:02:24.349Z,18.90
2018-11-05T14:04:53.058Z,18.80
2018-11-05T14:07:21.799Z,18.70
2018-11-05T14:09:50.500Z,18.50
2018-11-05T14:12:19.244Z,18.70
2018-11-05T14:14:48.000Z,18.80
2018-11-05T14:17:16.704Z,19.00
2018-11-05T14:19:45.396Z,19.10
2018-11-05T14:22:14.111Z,19.00
2018-11-05T14:24:42.807Z,18.40
2018-11-05T14:27:11.541Z,17.90
2018-11-05T14:29:40.734Z,17.50
2018-11-05T14:32:09.024Z,17.10
2018-11-05T14:34:37.689Z,16.60
2018-11-05T14:37:06.487Z,15.90
2018-11-05T14:39:35.208Z,15.70
2018-11-05T14:42:03.913Z,15.50
2018-11-05T14:44:32.615Z,15.30
2018-11-05T14:47:01.371Z,15.00
2018-11-05T14:49:30.087Z,15.00
2018-11-05T14:51:58.783Z,14.80
2018-11-05T14:54:27.475Z,14.60
2018-11-05T14:56:56.300Z,14.30
2018-11-05T14:59:25.050Z,14.20
2018-11-05T15:01:59.251Z,14.10
2018-11-05T15:04:27.942Z,14.10
2018-11-05T15:06:56.663Z,14.00
2018-11-05T15:09:25.373Z,13.70
2018-11-05T15:11:54.072Z,13.70
2018-11-05T15:14:22.789Z,13.60
2018-11-05T15:16:51.556Z,13.50
2018-11-05T15:19:20.582Z,13.50
2018-11-05T15:21:49.095Z,13.40
2018-11-05T15:24:17.851Z,13.30
2018-11-05T15:26:46.664Z,13.30
2018-11-05T15:29:15.308Z,13.30
2018-11-05T15:31:44.107Z,13.20
2018-11-05T15:34:12.808Z,13.10
2018-11-05T15:36:41.503Z,13.00
2018-11-05T15:39:10.263Z,12.90
2018-11-05T15:41:38.993Z,12.80
2018-11-05T15:44:08.488Z,12.60
2018-11-05T15:46:37.278Z,12.50
2018-11-05T15:49:05.979Z,12.40
2018-11-05T15:51:34.846Z,12.30
2018-11-05T15:54:03.578Z,12.30
2018-11-05T15:56:32.123Z,12.20
2018-11-05T15:59:00.845Z,12.20
2018-11-05T16:01:29.563Z,12.00
2018-11-05T16:03:58.259Z,11.80
2018-11-05T16:06:26.980Z,11.90
2018-11-05T16:08:55.688Z,11.80
2018-11-05T16:11:24.425Z,11.80
2018-11-05T16:13:53.244Z,11.70
2018-11-05T16:16:22.048Z,11.70
2018-11-05T16:18:50.831Z,11.60
2018-11-05T16:21:19.639Z,11.50
2018-11-05T16:23:48.452Z,11.50
2018-11-05T16:26:17.131Z,11.50
2018-11-05T16:28:45.947Z,11.40
2018-11-05T16:31:14.743Z,11.40
2018-11-05T16:33:43.471Z,11.40
2018-11-05T16:36:12.164Z,11.30
2018-11-05T16:38:40.894Z,11.30
2018-11-05T16:41:09.635Z,11.40
2018-11-05T16:43:38.364Z,11.50
2018-11-05T16:46:07.648Z,11.60
2018-11-05T16:48:36.381Z,11.60
2018-11-05T16:51:05.514Z,11.50
2018-11-05T16:53:34.257Z,11.50
2018-11-05T16:56:02.946Z,11.50
2018-11-05T16:58:31.673Z,11.50
2018-11-05T17:01:00.566Z,11.50
2018-11-05T17:03:29.272Z,11.50
2018-11-05T17:05:57.967Z,11.40
2018-11-05T17:08:26.771Z,11.40
2018-11-05T17:10:55.577Z,11.30
2018-11-05T17:13:24.487Z,11.30
2018-11-05T17:15:53.091Z,11.30
2018-11-05T17:18:21.904Z,11.30
2018-11-05T17:20:50.667Z,11.20
2018-11-05T17:23:19.464Z,11.20
2018-11-05T17:25:48.191Z,11.10
2018-11-05T17:28:16.978Z,11.20
2018-11-05T17:30:45.759Z,11.20
2018-11-05T17:33:14.560Z,11.10
2018-11-05T17:35:43.296Z,11.10
2018-11-05T17:38:12.026Z,11.00
2018-11-05T17:40:40.763Z,11.00
2018-11-05T17:43:09.594Z,11.00
2018-11-05T17:45:38.383Z,10.90
2018-11-05T17:48:07.233Z,10.90
2018-11-05T17:50:36.221Z,10.90
2018-11-05T17:53:05.168Z,10.80
2018-11-05T17:55:33.903Z,10.80
2018-11-05T17:58:02.700Z,10.70
2018-11-05T18:00:31.839Z,10.70
2018-11-05T18:03:00.624Z,10.70
2018-11-05T18:05:29.481Z,10.70
2018-11-05T18:07:58.212Z,10.70
2018-11-05T18:10:27.067Z,10.80
2018-11-05T18:12:55.839Z,10.60
2018-11-05T18:15:24.656Z,10.60
2018-11-05T18:17:53.411Z,10.60
2018-11-05T18:20:22.157Z,10.60
2018-11-05T18:22:51.013Z,10.60
2018-11-05T18:25:20.244Z,10.60
2018-11-05T18:27:49.027Z,10.50
2018-11-05T18:30:18.159Z,10.50
2018-11-05T18:32:47.163Z,10.60
2018-11-05T18:35:16.264Z,10.60
2018-11-05T18:37:46.684Z,10.60
2018-11-05T18:40:15.923Z,10.60
2018-11-05T18:42:45.284Z,10.60
2018-11-05T18:45:14.168Z,10.60
2018-11-05T18:47:42.995Z,10.50
2018-11-05T18:50:13.172Z,10.60
2018-11-05T18:52:42.100Z,10.60
2018-11-05T18:55:12.220Z,10.60
2018-11-05T18:57:40.951Z,10.50
2018-11-05T19:00:24.307Z,10.50
2018-11-05T19:02:54.704Z,10.40
2018-11-05T19:05:24.503Z,10.40
2018-11-05T19:07:53.227Z,10.40
2018-11-05T19:10:22.079Z,10.40
2018-11-05T19:12:51.663Z,10.20
2018-11-05T19:15:20.596Z,10.30
2018-11-05T19:17:50.082Z,10.20
2018-11-05T19:20:19.015Z,10.20
2018-11-05T19:22:47.825Z,10.20
2018-11-05T19:25:16.995Z,10.20
2018-11-05T19:27:45.712Z,10.30
2018-11-05T19:30:18.978Z,10.40
2018-11-05T19:32:47.769Z,10.30
2018-11-05T19:35:16.536Z,10.30
2018-11-05T19:37:45.351Z,10.30
2018-11-05T19:40:14.923Z,10.40
2018-11-05T19:42:44.606Z,10.20
2018-11-05T19:45:15.094Z,10.20
2018-11-05T19:47:43.928Z,10.20
2018-11-05T19:50:15.777Z,10.20
2018-11-05T19:52:45.603Z,10.30
2018-11-05T19:55:15.419Z,10.30
2018-11-05T19:57:45.053Z,10.20
2018-11-05T20:00:16.187Z,10.20
2018-11-05T20:02:45.411Z,10.30
2018-11-05T20:05:14.676Z,10.30
2018-11-05T20:07:43.731Z,10.20
2018-11-05T20:10:13.885Z,10.20
2018-11-05T20:12:43.210Z,10.20
2018-11-05T20:15:12.226Z,10.20
2018-11-05T20:17:41.808Z,10.10
2018-11-05T20:20:11.851Z,10.00
2018-11-05T20:22:40.791Z,10.00
2018-11-05T20:25:09.754Z,10.00
2018-11-05T20:27:39.263Z,10.00
2018-11-05T20:30:30.651Z,10.10
2018-11-05T20:32:59.872Z,10.10
2018-11-05T20:35:28.297Z,10.00
2018-11-05T20:37:57.049Z,9.90
2018-11-05T20:43:25.251Z,9.90
2018-11-05T20:45:54.088Z,10.00
2018-11-05T20:48:22.771Z,10.00
2018-11-05T20:50:51.556Z,10.00
2018-11-05T20:53:20.328Z,10.00
2018-11-05T20:55:49.132Z,10.00
2018-11-05T20:58:18.065Z,9.90
2018-11-05T21:00:46.885Z,10.00
2018-11-05T21:03:15.576Z,9.90
2018-11-05T21:05:44.404Z,9.90
2018-11-05T21:08:13.157Z,9.90
2018-11-05T21:10:41.987Z,9.90
2018-11-05T21:13:11.129Z,9.80
2018-11-05T21:15:39.843Z,9.80
2018-11-05T21:18:08.693Z,9.80
2018-11-05T21:20:37.235Z,9.80
2018-11-05T21:23:06.004Z,9.80
2018-11-05T21:25:34.641Z,9.70
2018-11-05T21:28:03.357Z,9.70
2018-11-05T21:30:32.088Z,9.60
2018-11-05T21:33:00.847Z,9.60
2018-11-05T21:35:29.470Z,9.60
2018-11-05T21:37:58.237Z,9.60
2018-11-05T21:40:26.990Z,9.60
2018-11-05T21:42:55.720Z,9.60
2018-11-05T21:45:24.408Z,9.60
2018-11-05T21:47:53.093Z,9.60
2018-11-05T21:50:21.786Z,9.60
2018-11-05T21:52:50.514Z,9.60
2018-11-05T21:55:19.203Z,9.60
2018-11-05T21:57:48.880Z,9.60
2018-11-05T22:00:21.030Z,9.60
2018-11-05T22:02:54.971Z,9.60
2018-11-05T22:05:23.776Z,9.60
2018-11-05T22:07:52.545Z,9.70
2018-11-05T22:10:26.969Z,9.70
2018-11-05T22:12:55.827Z,9.70
2018-11-05T22:15:28.496Z,9.60
2018-11-05T22:17:57.203Z,9.60
2018-11-05T22:20:26.193Z,9.60
2018-11-05T22:22:54.880Z,9.50
2018-11-05T22:25:23.587Z,9.60
2018-11-05T22:27:52.500Z,9.70
2018-11-05T22:30:21.296Z,9.70
2018-11-05T22:32:49.976Z,9.60
2018-11-05T22:35:18.672Z,9.70
2018-11-05T22:37:47.346Z,9.80
2018-11-05T22:40:16.064Z,9.80
2018-11-05T22:42:44.763Z,9.70
2018-11-05T22:45:14.596Z,9.70
2018-11-05T22:47:44.070Z,9.60
2018-11-05T22:50:12.798Z,9.70
2018-11-05T22:52:42.187Z,9.70
2018-11-05T22:55:10.879Z,9.60
2018-11-05T22:57:40.593Z,9.60
2018-11-05T23:00:17.859Z,9.50
2018-11-05T23:02:52.081Z,9.50
2018-11-05T23:05:20.881Z,9.50
2018-11-05T23:07:50.116Z,9.50
2018-11-05T23:10:18.897Z,9.60
2018-11-05T23:12:47.590Z,9.50
2018-11-05T23:15:16.571Z,9.40
2018-11-05T23:17:45.467Z,9.50
2018-11-05T23:20:14.152Z,9.50
2018-11-05T23:22:44.921Z,9.50
2018-11-05T23:25:14.340Z,9.40
2018-11-05T23:27:43.160Z,9.50
2018-11-05T23:30:12.859Z,9.60
2018-11-05T23:32:41.776Z,9.60
2018-11-05T23:35:11.077Z,9.70
2018-11-05T23:37:40.604Z,9.70
2018-11-05T23:40:10.049Z,9.70
2018-11-05T23:42:39.222Z,9.60
2018-11-05T23:45:10.383Z,9.60
2018-11-05T23:47:39.074Z,9.60
2018-11-05T23:50:07.904Z,9.60
2018-11-05T23:52:36.630Z,9.60
2018-11-05T23:55:06.271Z,9.60
2018-11-05T23:57:34.955Z,9.60
